^^
Saratoga-Weather Station Historical Data
Daily Summary for October 17, 2021 Units:  Both    English   Metric
Daily Weekly Monthly Yearly Custom
  High: Low: Average:
Temperature: 46.9 °F /  8.3 °C 45.7 °F /  7.6 °C 46.4 °F /  8 °C
Dew Point: 45.5 °F /  7.5 °C 44.4 °F /  6.9 °C 45 °F /  7.2 °C
Humidity: 95% 95% 95%
Wind Speed: 1mph /  1.6km/h - 0mph /  0km/h
Wind Gust: 1mph /  1.6km/h - -
Wind- - West
Pressure: 30.1 in /  1020.0 hPa 30.1 in /  1019.3 hPa -
Precipitation: 0 in /  0.0 mm    
Historical Graphs
 
 
Tabular Data for October 17, 2021
Time Temperature Dew Point Pressure Wind Wind Speed Wind Gust Humidity Rainfall Rate (Hourly) solar
00:01 46 °F /  7.8 °C 44.6 °F /  7 °C 30.1in /  1019.6hPa Calm     95% 0in /  0.0mm 0 W/m2
00:06 46 °F /  7.8 °C 44.6 °F /  7 °C 30.1in /  1019.6hPa Calm     95% 0in /  0.0mm 0 W/m2
00:11 46 °F /  7.8 °C 44.6 °F /  7 °C 30.1in /  1020.0hPa Calm     95% 0in /  0.0mm 0 W/m2
00:16 46.2 °F /  7.9 °C 44.8 °F /  7.1 °C 30.1in /  1019.6hPa Calm     95% 0in /  0.0mm 0 W/m2
00:21 46.2 °F /  7.9 °C 44.8 °F /  7.1 °C 30.1in /  1019.6hPa Calm     95% 0in /  0.0mm 0 W/m2
00:26 46.4 °F /  8 °C 45 °F /  7.2 °C 30.1in /  1019.6hPa Calm     95% 0in /  0.0mm 0 W/m2
00:31 46.6 °F /  8.1 °C 45.1 °F /  7.3 °C 30.1in /  1019.6hPa Calm     95% 0in /  0.0mm 0 W/m2
00:36 46.6 °F /  8.1 °C 45.1 °F /  7.3 °C 30.1in /  1019.6hPa Calm     95% 0in /  0.0mm 0 W/m2
00:41 46.8 °F /  8.2 °C 45.3 °F /  7.4 °C 30.1in /  1019.6hPa Calm     95% 0in /  0.0mm 0 W/m2
00:46 46.8 °F /  8.2 °C 45.3 °F /  7.4 °C 30.1in /  1019.6hPa Calm     95% 0in /  0.0mm 0 W/m2
00:51 46.8 °F /  8.2 °C 45.3 °F /  7.4 °C 30.1in /  1019.6hPa Calm     95% 0in /  0.0mm 0 W/m2
00:56 46.8 °F /  8.2 °C 45.3 °F /  7.4 °C 30.1in /  1019.6hPa Calm     95% 0in /  0.0mm 0 W/m2
01:01 46.8 °F /  8.2 °C 45.3 °F /  7.4 °C 30.1in /  1019.6hPa Calm     95% 0in /  0.0mm 0 W/m2
01:06 46.8 °F /  8.2 °C 45.3 °F /  7.4 °C 30.1in /  1019.6hPa Calm     95% 0in /  0.0mm 0 W/m2
01:11 46.8 °F /  8.2 °C 45.3 °F /  7.4 °C 30.1in /  1019.6hPa Calm     95% 0in /  0.0mm 0 W/m2
01:16 46.8 °F /  8.2 °C 45.3 °F /  7.4 °C 30.1in /  1019.6hPa Calm     95% 0in /  0.0mm 0 W/m2
01:21 46.8 °F /  8.2 °C 45.3 °F /  7.4 °C 30.1in /  1019.6hPa West 1mph /  1.6km/h 1mph /  1.6km/h 95% 0in /  0.0mm 0 W/m2
01:26 46.9 °F /  8.3 °C 45.5 °F /  7.5 °C 30.1in /  1019.6hPa Calm     95% 0in /  0.0mm 0 W/m2
01:31 46.9 °F /  8.3 °C 45.5 °F /  7.5 °C 30.1in /  1019.6hPa Calm     95% 0in /  0.0mm 0 W/m2
01:36 46.9 °F /  8.3 °C 45.5 °F /  7.5 °C 30.1in /  1019.6hPa Calm     95% 0in /  0.0mm 0 W/m2
01:41 46.9 °F /  8.3 °C 45.5 °F /  7.5 °C 30.1in /  1019.6hPa Calm     95% 0in /  0.0mm 0 W/m2
01:46 46.9 °F /  8.3 °C 45.5 °F /  7.5 °C 30.1in /  1019.6hPa Calm     95% 0in /  0.0mm 0 W/m2
01:51 46.9 °F /  8.3 °C 45.5 °F /  7.5 °C 30.1in /  1019.6hPa Calm     95% 0in /  0.0mm 0 W/m2
01:56 46.9 °F /  8.3 °C 45.5 °F /  7.5 °C 30.1in /  1019.6hPa Calm     95% 0in /  0.0mm 0 W/m2
02:01 46.9 °F /  8.3 °C 45.5 °F /  7.5 °C 30.1in /  1019.6hPa Calm     95% 0in /  0.0mm 0 W/m2
02:06 46.9 °F /  8.3 °C 45.5 °F /  7.5 °C 30.1in /  1019.6hPa Calm     95% 0in /  0.0mm 0 W/m2
02:11 46.9 °F /  8.3 °C 45.5 °F /  7.5 °C 30.1in /  1019.6hPa Calm     95% 0in /  0.0mm 0 W/m2
02:16 46.9 °F /  8.3 °C 45.5 °F /  7.5 °C 30.1in /  1019.6hPa Calm     95% 0in /  0.0mm 0 W/m2
02:21 46.8 °F /  8.2 °C 45.3 °F /  7.4 °C 30.1in /  1019.6hPa Calm     95% 0in /  0.0mm 0 W/m2
02:26 46.8 °F /  8.2 °C 45.3 °F /  7.4 °C 30.1in /  1019.6hPa Calm     95% 0in /  0.0mm 0 W/m2
02:31 46.8 °F /  8.2 °C 45.3 °F /  7.4 °C 30.1in /  1019.6hPa Calm     95% 0in /  0.0mm 0 W/m2
02:36 46.8 °F /  8.2 °C 45.3 °F /  7.4 °C 30.1in /  1019.6hPa Calm     95% 0in /  0.0mm 0 W/m2
02:41 46.8 °F /  8.2 °C 45.3 °F /  7.4 °C 30.1in /  1019.6hPa Calm     95% 0in /  0.0mm 0 W/m2
02:46 46.8 °F /  8.2 °C 45.3 °F /  7.4 °C 30.1in /  1019.6hPa Calm     95% 0in /  0.0mm 0 W/m2
02:51 46.6 °F /  8.1 °C 45.1 °F /  7.3 °C 30.1in /  1019.6hPa Calm   1mph /  1.6km/h 95% 0in /  0.0mm 0 W/m2
02:56 46.6 °F /  8.1 °C 45.1 °F /  7.3 °C 30.1in /  1019.6hPa Calm     95% 0in /  0.0mm 0 W/m2
03:01 46.6 °F /  8.1 °C 45.1 °F /  7.3 °C 30.1in /  1019.6hPa Calm     95% 0in /  0.0mm 0 W/m2
03:06 46.4 °F /  8 °C 45 °F /  7.2 °C 30.1in /  1019.6hPa Calm     95% 0in /  0.0mm 0 W/m2
03:12 46.2 °F /  7.9 °C 44.8 °F /  7.1 °C 30.1in /  1019.6hPa Calm     95% 0in /  0.0mm 0 W/m2
03:17 46.2 °F /  7.9 °C 44.8 °F /  7.1 °C 30.1in /  1019.6hPa Calm     95% 0in /  0.0mm 0 W/m2
03:22 46 °F /  7.8 °C 44.6 °F /  7 °C 30.1in /  1019.6hPa Calm     95% 0in /  0.0mm 0 W/m2
03:27 46 °F /  7.8 °C 44.6 °F /  7 °C 30.1in /  1019.6hPa Calm     95% 0in /  0.0mm 0 W/m2
03:32 46 °F /  7.8 °C 44.6 °F /  7 °C 30.1in /  1019.6hPa Calm     95% 0in /  0.0mm 0 W/m2
03:37 46 °F /  7.8 °C 44.6 °F /  7 °C 30.1in /  1019.6hPa Calm     95% 0in /  0.0mm 0 W/m2
03:42 46 °F /  7.8 °C 44.6 °F /  7 °C 30.1in /  1019.3hPa Calm     95% 0in /  0.0mm 0 W/m2
03:47 45.9 °F /  7.7 °C 44.4 °F /  6.9 °C 30.1in /  1019.6hPa Calm     95% 0in /  0.0mm 0 W/m2
03:52 45.9 °F /  7.7 °C 44.4 °F /  6.9 °C 30.1in /  1019.3hPa Calm     95% 0in /  0.0mm 0 W/m2
03:57 45.9 °F /  7.7 °C 44.4 °F /  6.9 °C 30.1in /  1019.3hPa Calm     95% 0in /  0.0mm 0 W/m2
04:02 45.9 °F /  7.7 °C 44.4 °F /  6.9 °C 30.1in /  1019.3hPa Calm     95% 0in /  0.0mm 0 W/m2
04:07 45.7 °F /  7.6 °C 44.4 °F /  6.9 °C 30.1in /  1019.3hPa Calm     95% 0in /  0.0mm 0 W/m2
04:12 45.9 °F /  7.7 °C 44.4 °F /  6.9 °C 30.1in /  1019.3hPa Calm     95% 0in /  0.0mm 0 W/m2
04:17 45.9 °F /  7.7 °C 44.4 °F /  6.9 °C 30.1in /  1019.3hPa Calm     95% 0in /  0.0mm 0 W/m2
04:22 45.9 °F /  7.7 °C 44.4 °F /  6.9 °C 30.1in /  1019.3hPa Calm     95% 0in /  0.0mm 0 W/m2
04:27 46 °F /  7.8 °C 44.6 °F /  7 °C 30.1in /  1019.3hPa Calm     95% 0in /  0.0mm 0 W/m2
04:32 46 °F /  7.8 °C 44.6 °F /  7 °C 30.1in /  1019.3hPa Calm     95% 0in /  0.0mm 0 W/m2
Juneau County Weather
Compliments of Weather Underground - 2 mb